createdAt,value
2018-11-28T00:00:29.622Z,17.93
2018-11-28T00:05:33.143Z,19.60
2018-11-28T00:10:38.654Z,19.17
2018-11-28T00:15:42.193Z,19.17
2018-11-28T00:20:45.713Z,17.57
2018-11-28T00:25:49.271Z,18.23
2018-11-28T00:30:52.745Z,18.40
2018-11-28T00:35:56.748Z,19.17
2018-11-28T00:41:00.264Z,18.90
2018-11-28T00:46:03.774Z,19.03
2018-11-28T00:51:07.543Z,19.57
2018-11-28T00:56:11.065Z,18.63
2018-11-28T01:01:15.678Z,20.27
2018-11-28T01:06:19.292Z,19.30
2018-11-28T01:11:22.936Z,18.43
2018-11-28T01:16:27.860Z,18.93
2018-11-28T01:21:31.596Z,17.83
2018-11-28T01:26:35.385Z,18.57
2018-11-28T01:31:38.869Z,18.37
2018-11-28T01:41:51.892Z,18.03
2018-11-28T01:46:56.481Z,18.80
2018-11-28T01:52:00.058Z,18.90
2018-11-28T01:57:03.621Z,19.00
2018-11-28T02:02:09.794Z,18.00
2018-11-28T02:07:15.401Z,18.53
2018-11-28T02:12:18.879Z,17.57
2018-11-28T02:17:22.369Z,17.83
2018-11-28T02:22:31.649Z,18.87
2018-11-28T02:27:35.207Z,18.73
2018-11-28T02:32:38.701Z,19.27
2018-11-28T02:37:42.339Z,17.80
2018-11-28T02:42:46.511Z,17.17
2018-11-28T02:47:50.497Z,18.87
2018-11-28T02:52:58.371Z,18.37
2018-11-28T02:58:01.882Z,19.37
2018-11-28T03:03:05.485Z,18.27
2018-11-28T03:08:08.998Z,18.17
2018-11-28T03:13:12.493Z,18.23
2018-11-28T03:18:15.984Z,20.07
2018-11-28T03:23:19.836Z,19.27
2018-11-28T03:28:23.440Z,19.33
2018-11-28T03:33:26.985Z,18.87
2018-11-28T03:38:30.486Z,19.83
2018-11-28T03:43:34.029Z,18.47
2018-11-28T03:48:37.513Z,17.47
2018-11-28T03:53:41.057Z,18.87
2018-11-28T03:58:44.559Z,19.70
2018-11-28T04:03:53.517Z,19.83
2018-11-28T04:08:57.131Z,18.60
2018-11-28T04:14:00.624Z,20.37
2018-11-28T04:19:05.538Z,19.53
2018-11-28T04:24:10.145Z,19.97
2018-11-28T04:29:13.757Z,20.63
2018-11-28T04:34:17.258Z,20.20
2018-11-28T04:39:20.778Z,20.53
2018-11-28T04:44:24.337Z,21.80
2018-11-28T04:49:27.862Z,21.40
2018-11-28T04:54:32.431Z,21.70
2018-11-28T04:59:35.949Z,21.97
2018-11-28T05:04:39.453Z,20.93
2018-11-28T05:09:42.993Z,20.83
2018-11-28T05:14:46.609Z,19.83
2018-11-28T05:19:50.472Z,20.70
2018-11-28T05:24:54.085Z,20.97
2018-11-28T05:29:57.721Z,21.23
2018-11-28T05:35:01.387Z,23.27
2018-11-28T05:40:05.709Z,23.80
2018-11-28T05:45:11.217Z,24.07
2018-11-28T05:50:15.645Z,23.50
2018-11-28T05:55:21.602Z,23.30
2018-11-28T06:00:32.905Z,23.57
2018-11-28T06:05:36.570Z,24.17
2018-11-28T06:10:40.109Z,25.03
2018-11-28T06:15:43.595Z,24.53
2018-11-28T06:20:47.095Z,23.33
2018-11-28T06:25:50.565Z,24.77
2018-11-28T06:30:54.164Z,24.50
2018-11-28T06:35:57.745Z,24.53
2018-11-28T06:41:01.302Z,23.37
2018-11-28T06:46:04.901Z,22.63
2018-11-28T06:51:08.483Z,24.13
2018-11-28T06:56:12.066Z,24.47
2018-11-28T07:01:15.706Z,23.63
2018-11-28T07:06:19.374Z,24.73
2018-11-28T07:11:22.994Z,25.27
2018-11-28T07:16:27.167Z,26.63
2018-11-28T07:21:30.277Z,24.57
2018-11-28T07:26:33.897Z,24.17
2018-11-28T07:31:37.661Z,24.90
2018-11-28T07:36:41.196Z,24.23
2018-11-28T07:41:44.757Z,23.10
2018-11-28T07:46:48.417Z,24.13
2018-11-28T07:51:53.029Z,23.20
2018-11-28T07:56:56.652Z,22.57
2018-11-28T08:02:00.225Z,22.00
2018-11-28T08:07:03.857Z,21.10
2018-11-28T08:12:11.437Z,22.97
2018-11-28T08:17:15.134Z,22.67
2018-11-28T08:22:19.016Z,22.80
2018-11-28T08:27:22.741Z,22.00
2018-11-28T08:32:26.392Z,21.70
2018-11-28T08:37:30.046Z,21.03
2018-11-28T08:42:33.661Z,22.03
2018-11-28T08:47:37.221Z,20.43
2018-11-28T08:52:40.858Z,20.60
2018-11-28T08:57:46.489Z,20.17
2018-11-28T09:02:52.018Z,20.30
2018-11-28T09:07:55.681Z,22.23
2018-11-28T09:13:03.999Z,20.40
2018-11-28T09:18:02.829Z,21.70
2018-11-28T09:23:07.780Z,20.70
2018-11-28T09:28:11.338Z,20.30
2018-11-28T09:33:15.011Z,18.93
2018-11-28T09:38:19.432Z,21.73
2018-11-28T09:43:23.145Z,20.30
2018-11-28T09:48:26.785Z,20.23
2018-11-28T09:53:30.322Z,20.03
2018-11-28T09:58:33.882Z,19.53
2018-11-28T10:03:37.597Z,20.40
2018-11-28T10:08:41.387Z,19.90
2018-11-28T10:13:46.064Z,20.43
2018-11-28T10:18:49.817Z,19.83
2018-11-28T10:23:53.387Z,19.83
2018-11-28T10:28:57.021Z,20.50
2018-11-28T10:34:00.715Z,19.97
2018-11-28T10:39:06.029Z,19.40
2018-11-28T10:44:09.761Z,19.97
2018-11-28T10:49:13.335Z,20.90
2018-11-28T10:54:17.938Z,20.03
2018-11-28T10:59:21.499Z,20.23
2018-11-28T11:04:26.051Z,22.13
2018-11-28T11:09:34.794Z,19.50
2018-11-28T11:14:43.485Z,20.20
2018-11-28T11:19:47.108Z,22.93
2018-11-28T11:24:50.742Z,23.70
2018-11-28T11:29:54.271Z,19.17
2018-11-28T11:34:57.883Z,20.30
2018-11-28T11:40:02.514Z,19.73
2018-11-28T11:45:08.438Z,19.37
2018-11-28T11:50:16.426Z,18.53
2018-11-28T11:55:20.562Z,18.70
2018-11-28T12:00:25.340Z,19.53
2018-11-28T12:05:28.897Z,18.57
2018-11-28T12:10:32.449Z,17.97
2018-11-28T12:15:36.052Z,18.20
2018-11-28T12:20:46.106Z,15.57
2018-11-28T12:25:49.750Z,18.70
2018-11-28T12:30:53.294Z,17.93
2018-11-28T12:35:56.876Z,17.60
2018-11-28T12:41:01.461Z,16.83
2018-11-28T12:46:05.164Z,17.67
2018-11-28T12:51:09.001Z,16.93
2018-11-28T12:56:12.592Z,17.83
2018-11-28T13:01:16.304Z,18.67
2018-11-28T13:06:19.933Z,17.47
2018-11-28T13:11:23.426Z,18.50
2018-11-28T13:16:27.050Z,16.60
2018-11-28T13:21:30.540Z,17.40
2018-11-28T13:26:34.098Z,17.20
2018-11-28T13:31:37.819Z,17.90
2018-11-28T13:36:41.420Z,18.00
2018-11-28T13:41:45.098Z,17.63
2018-11-28T13:46:48.746Z,15.77
2018-11-28T13:51:52.281Z,17.87
2018-11-28T13:56:58.753Z,16.80
2018-11-28T14:01:59.485Z,17.13
2018-11-28T14:07:07.988Z,17.17
2018-11-28T14:12:11.557Z,17.90
2018-11-28T14:17:16.043Z,16.90
2018-11-28T14:22:26.346Z,15.73
2018-11-28T14:27:29.905Z,18.00
2018-11-28T14:32:33.585Z,17.57
2018-11-28T14:37:37.520Z,15.77
2018-11-28T14:42:41.029Z,16.43
2018-11-28T14:47:45.113Z,17.13
2018-11-28T14:52:48.677Z,15.97
2018-11-28T14:57:52.365Z,17.17
2018-11-28T15:02:59.134Z,18.40
2018-11-28T15:08:07.448Z,17.47
2018-11-28T15:13:11.037Z,18.10
2018-11-28T15:18:14.549Z,18.17
2018-11-28T15:23:18.354Z,17.03
2018-11-28T15:28:21.873Z,18.13
2018-11-28T15:33:25.554Z,18.77
2018-11-28T15:38:29.146Z,19.13
2018-11-28T15:43:32.839Z,19.07
2018-11-28T15:48:36.539Z,19.00
2018-11-28T15:53:40.041Z,18.43
2018-11-28T15:58:43.832Z,19.07
2018-11-28T16:03:47.852Z,21.03
2018-11-28T16:08:54.323Z,21.10
2018-11-28T16:13:57.929Z,19.50
2018-11-28T16:19:01.513Z,20.00
2018-11-28T16:24:05.402Z,19.70
2018-11-28T16:29:08.990Z,19.23
2018-11-28T16:34:12.622Z,19.57
2018-11-28T16:39:16.418Z,21.20
2018-11-28T16:44:19.896Z,20.60
2018-11-28T16:49:24.197Z,20.27
2018-11-28T16:54:27.865Z,20.47
2018-11-28T16:59:32.471Z,20.23
2018-11-28T17:04:35.964Z,20.80
2018-11-28T17:09:40.673Z,21.07
2018-11-28T17:14:46.225Z,21.10
2018-11-28T17:19:49.785Z,19.03
2018-11-28T17:24:57.148Z,19.67
2018-11-28T17:30:01.717Z,20.40
2018-11-28T17:35:05.605Z,19.83
2018-11-28T17:40:12.278Z,20.77
2018-11-28T17:45:26.611Z,20.23
2018-11-28T17:50:30.157Z,20.63
2018-11-28T17:55:50.202Z,20.90
2018-11-28T18:00:53.781Z,20.63
2018-11-28T18:05:58.504Z,20.50
2018-11-28T18:11:10.839Z,20.27
2018-11-28T18:16:17.491Z,21.70
2018-11-28T18:26:46.563Z,22.00
2018-11-28T18:31:51.249Z,21.17
2018-11-28T18:36:55.020Z,20.43
2018-11-28T18:42:09.027Z,22.13
2018-11-28T18:47:18.730Z,22.13
2018-11-28T18:52:24.393Z,20.77
2018-11-28T18:57:27.882Z,21.93
2018-11-28T19:02:32.503Z,22.30
2018-11-28T19:07:36.040Z,25.20
2018-11-28T19:12:39.956Z,27.83
2018-11-28T19:17:44.726Z,27.17
2018-11-28T19:22:48.928Z,21.27
2018-11-28T19:27:52.541Z,22.63
2018-11-28T19:33:00.858Z,20.73
2018-11-28T19:38:04.706Z,22.70
2018-11-28T19:43:08.546Z,22.37
2018-11-28T19:48:12.178Z,22.37
2018-11-28T19:53:15.754Z,21.33
2018-11-28T19:58:19.392Z,22.23
2018-11-28T20:03:23.088Z,23.03
2018-11-28T20:08:26.618Z,23.80
2018-11-28T20:13:30.714Z,22.90
2018-11-28T20:18:34.246Z,23.03
2018-11-28T20:23:37.832Z,24.07
2018-11-28T20:28:41.455Z,24.57
2018-11-28T20:33:45.004Z,22.53
2018-11-28T20:38:48.609Z,21.63
2018-11-28T20:43:53.345Z,20.93
2018-11-28T20:48:57.146Z,22.13
2018-11-28T20:54:00.808Z,21.70
2018-11-28T20:59:06.326Z,21.83
2018-11-28T21:04:10.982Z,21.70
2018-11-28T21:09:14.568Z,20.57
2018-11-28T21:14:18.220Z,19.70
2018-11-28T21:19:21.946Z,20.50
2018-11-28T21:24:26.741Z,19.93
2018-11-28T21:29:30.630Z,20.10
2018-11-28T21:34:34.282Z,18.40
2018-11-28T21:39:38.028Z,18.77
2018-11-28T21:44:41.905Z,18.80
2018-11-28T21:49:45.587Z,17.97
2018-11-28T21:54:49.197Z,15.87
2018-11-28T21:59:52.751Z,17.43
2018-11-28T22:04:56.580Z,17.30
2018-11-28T22:10:00.258Z,17.70
2018-11-28T22:15:04.275Z,17.93
2018-11-28T22:20:10.145Z,17.07
2018-11-28T22:25:17.927Z,19.07
2018-11-28T22:30:23.517Z,17.90
2018-11-28T22:35:27.172Z,18.93
2018-11-28T22:40:31.784Z,18.00
2018-11-28T22:45:36.630Z,16.47
2018-11-28T22:50:40.692Z,18.33
2018-11-28T22:55:44.281Z,17.70
2018-11-28T23:00:54.136Z,17.27
2018-11-28T23:05:57.692Z,17.33
2018-11-28T23:11:01.370Z,17.67
2018-11-28T23:16:05.133Z,20.07
2018-11-28T23:21:08.809Z,19.40
2018-11-28T23:26:12.509Z,19.17
2018-11-28T23:31:16.082Z,19.10
2018-11-28T23:36:20.681Z,19.00
2018-11-28T23:41:24.155Z,19.23
2018-11-28T23:46:27.772Z,19.20
2018-11-28T23:51:31.372Z,20.20
2018-11-28T23:56:34.890Z,19.10
